Time;durP1;ratioP1;P1;durP2;ratioP2;P2;SDS_P1;SDS_P2;PMS_P1;PMS_P2;Temp;Humidity;BMP_temperature;BMP_pressure;BME280_temperature;BME280_humidity;BME280_pressure;Samples;Min_cycle;Max_cycle;Signal;HPM_P1;HPM_P2
2021/11/26 00:00:27;;;;;;;16.63;13.60;;;4.20;99.90;;;4.94;100.00;99182.63;5019539;28;20202;-70
2021/11/26 00:02:55;;;;;;;18.47;14.00;;;4.20;99.90;;;5.22;100.00;99177.06;5015346;28;20300;-68
2021/11/26 00:05:27;;;;;;;16.23;13.03;;;4.30;99.90;;;5.07;100.00;99174.63;5015468;28;20186;-70
2021/11/26 00:07:55;;;;;;;16.73;12.97;;;4.30;99.90;;;5.16;100.00;99164.56;5014738;28;20681;-69
2021/11/26 00:10:25;;;;;;;16.03;12.60;;;4.30;99.90;;;5.09;100.00;99161.06;5015227;28;20297;-70
2021/11/26 00:12:57;;;;;;;15.83;12.83;;;4.30;99.90;;;4.90;100.00;99166.22;5015071;28;20302;-70
2021/11/26 00:15:37;;;;;;;16.00;11.87;;;4.20;99.90;;;4.93;100.00;99157.81;5015006;28;20273;-69
2021/11/26 00:18:08;;;;;;;17.00;12.80;;;4.20;99.90;;;4.79;100.00;99158.88;5014956;28;20211;-69
2021/11/26 00:20:38;;;;;;;17.50;13.20;;;4.20;99.90;;;4.81;100.00;99154.16;5014314;28;20185;-70
2021/11/26 00:23:07;;;;;;;16.07;12.63;;;4.20;99.90;;;4.74;100.00;99165.84;5014780;28;20294;-70
2021/11/26 00:25:37;;;;;;;16.50;12.47;;;4.10;99.90;;;4.74;100.00;99161.34;5014945;28;20294;-69
2021/11/26 00:28:06;;;;;;;15.80;12.00;;;4.10;99.90;;;4.64;100.00;99150.28;5014474;28;20271;-69
2021/11/26 00:30:35;;;;;;;18.33;13.03;;;4.10;99.90;;;4.69;100.00;99145.13;5014977;28;20241;-70
2021/11/26 00:33:05;;;;;;;16.20;12.47;;;4.00;99.90;;;4.55;100.00;99143.50;5014653;28;20209;-69
2021/11/26 00:35:33;;;;;;;15.53;11.77;;;3.90;99.90;;;4.28;100.00;99131.19;5014936;28;20574;-70
2021/11/26 00:38:03;;;;;;;16.23;12.07;;;3.80;99.90;;;4.26;100.00;99127.09;5014574;28;20578;-69
2021/11/26 00:40:31;;;;;;;16.43;12.67;;;3.70;99.90;;;4.14;100.00;99121.56;5015116;28;20294;-70
2021/11/26 00:43:01;;;;;;;15.60;12.20;;;3.60;99.90;;;4.04;100.00;99121.16;5014564;28;20288;-70
2021/11/26 00:45:29;;;;;;;16.60;12.93;;;3.50;99.90;;;3.94;100.00;99123.38;5015075;28;20202;-70
2021/11/26 00:47:58;;;;;;;19.90;14.17;;;3.40;99.90;;;3.78;100.00;99123.75;5014622;28;20290;-71
2021/11/26 00:50:27;;;;;;;17.13;13.33;;;3.30;99.90;;;3.90;100.00;99113.34;5014615;28;20286;-69
2021/11/26 00:52:56;;;;;;;19.67;13.43;;;3.20;99.90;;;3.79;100.00;99122.72;5014412;28;20296;-69
2021/11/26 00:55:24;;;;;;;16.80;13.23;;;3.20;99.90;;;3.65;100.00;99118.41;5014345;28;20238;-69
2021/11/26 00:57:52;;;;;;;18.53;13.33;;;3.20;99.90;;;3.63;100.00;99123.13;5014282;28;20314;-69
2021/11/26 01:00:22;;;;;;;18.80;13.30;;;3.10;99.90;;;3.65;100.00;99119.22;5014356;28;20210;-70
2021/11/26 01:02:51;;;;;;;17.33;13.63;;;3.10;99.90;;;3.70;100.00;99126.63;5014211;28;20297;-69
2021/11/26 01:05:19;;;;;;;17.73;13.00;;;3.10;99.90;;;4.00;100.00;99122.56;5014325;28;20249;-69
2021/11/26 01:07:48;;;;;;;18.10;12.93;;;3.20;99.90;;;3.88;100.00;99115.38;5014285;28;20292;-68
2021/11/26 01:10:20;;;;;;;18.10;13.10;;;3.20;99.90;;;4.19;100.00;99120.94;5014255;28;20247;-71
2021/11/26 01:12:49;;;;;;;17.60;13.70;;;3.20;99.90;;;3.91;100.00;99121.13;5013793;28;20261;-69
2021/11/26 01:15:24;;;;;;;19.13;13.37;;;3.30;99.90;;;4.00;100.00;99117.25;5013951;28;20239;-68
2021/11/26 01:17:52;;;;;;;16.03;12.50;;;3.30;99.90;;;3.91;100.00;99107.81;5013477;28;20309;-70
2021/11/26 01:20:25;;;;;;;19.33;13.43;;;3.20;99.90;;;3.96;100.00;99109.88;5013760;28;20279;-70
2021/11/26 01:22:53;;;;;;;16.90;13.07;;;3.30;99.90;;;4.01;100.00;99102.09;5014115;28;20184;-70
2021/11/26 01:25:22;;;;;;;18.00;13.30;;;3.20;99.90;;;4.13;100.00;99105.75;5014117;28;20597;-68
2021/11/26 01:27:51;;;;;;;17.13;13.20;;;3.30;99.90;;;3.91;100.00;99105.13;5014193;28;20387;-70
2021/11/26 01:30:27;;;;;;;17.17;12.90;;;3.20;99.90;;;3.92;100.00;99095.31;5013123;28;20242;-68
2021/11/26 01:32:58;;;;;;;16.60;12.67;;;3.20;99.90;;;3.73;100.00;99095.09;5013888;28;20186;-70
2021/11/26 01:35:28;;;;;;;16.97;12.97;;;3.20;99.90;;;3.65;100.00;99091.78;5013578;28;20716;-68
2021/11/26 01:37:57;;;;;;;19.17;13.10;;;3.10;99.90;;;3.56;100.00;99090.31;5013768;28;20303;-69
2021/11/26 01:40:26;;;;;;;17.03;13.10;;;3.10;99.90;;;3.61;100.00;99085.22;5013776;28;20291;-70
2021/11/26 01:42:57;;;;;;;17.17;12.70;;;3.00;99.90;;;3.61;100.00;99082.56;5013482;28;20207;-69
2021/11/26 01:45:27;;;;;;;17.50;13.03;;;3.00;99.90;;;3.53;100.00;99077.44;5013796;28;20273;-69
2021/11/26 01:47:55;;;;;;;17.30;12.30;;;3.00;99.90;;;3.68;100.00;99080.72;5013690;28;20191;-68
2021/11/26 01:50:24;;;;;;;17.13;13.20;;;3.00;99.90;;;3.63;100.00;99081.34;5013446;28;20773;-68
2021/11/26 01:52:52;;;;;;;18.13;12.67;;;3.00;99.90;;;3.50;100.00;99072.50;5013046;28;20215;-68
2021/11/26 01:55:21;;;;;;;18.53;13.10;;;3.00;99.90;;;3.37;100.00;99064.47;5013027;28;20297;-68
2021/11/26 01:57:49;;;;;;;18.63;13.17;;;2.90;99.90;;;3.47;100.00;99049.75;5012744;28;20288;-69
2021/11/26 02:00:29;;;;;;;16.70;12.30;;;2.80;99.90;;;3.37;100.00;99048.50;5012736;28;20254;-69
2021/11/26 02:02:58;;;;;;;18.07;13.30;;;2.80;99.90;;;3.30;100.00;99048.50;5012748;28;20186;-68
2021/11/26 02:05:27;;;;;;;19.40;13.10;;;2.80;99.90;;;3.33;100.00;99050.75;5012500;28;20297;-69
2021/11/26 02:07:55;;;;;;;18.67;13.10;;;2.80;99.90;;;3.45;100.00;99041.16;5012635;28;20232;-69
2021/11/26 02:10:23;;;;;;;18.63;12.67;;;2.80;99.90;;;3.59;100.00;99034.00;5012780;28;20235;-68
2021/11/26 02:12:52;;;;;;;19.37;14.10;;;2.80;99.90;;;3.50;100.00;99041.38;5012735;28;20294;-68
2021/11/26 02:15:23;;;;;;;18.93;13.33;;;2.90;99.90;;;3.65;100.00;99038.53;5012539;28;20612;-69
2021/11/26 02:17:56;;;;;;;18.07;12.40;;;2.90;99.90;;;3.70;100.00;99030.75;5012077;28;20400;-71
2021/11/26 02:20:29;;;;;;;16.83;12.67;;;3.00;99.90;;;3.92;100.00;99029.53;5012417;28;20333;-68
2021/11/26 02:23:00;;;;;;;18.60;13.90;;;3.10;99.90;;;3.88;100.00;99017.66;5012217;28;20210;-68
2021/11/26 02:25:30;;;;;;;17.53;12.93;;;3.20;99.90;;;4.00;100.00;99016.00;5012390;28;20541;-69
2021/11/26 02:28:02;;;;;;;20.97;13.27;;;3.20;99.90;;;4.23;100.00;99018.25;5011878;28;20325;-69
2021/11/26 02:30:30;;;;;;;20.37;14.43;;;3.30;99.90;;;3.99;100.00;99019.69;5012381;28;20287;-68
2021/11/26 02:33:03;;;;;;;19.33;12.57;;;3.30;99.90;;;3.95;100.00;99013.16;5012250;28;20203;-69
2021/11/26 02:35:34;;;;;;;17.80;13.30;;;3.30;99.90;;;3.93;100.00;99009.88;5011935;28;20230;-69
2021/11/26 02:38:05;;;;;;;18.73;13.50;;;3.20;99.90;;;3.88;100.00;99011.50;5012069;28;20199;-68
2021/11/26 02:40:37;;;;;;;19.50;14.17;;;3.20;99.90;;;4.00;100.00;99015.19;5011923;28;20872;-69
2021/11/26 02:43:08;;;;;;;17.93;13.57;;;3.30;99.90;;;3.87;100.00;99013.38;5011190;28;20191;-67
2021/11/26 02:45:39;;;;;;;18.17;13.50;;;3.30;99.90;;;4.07;100.00;99013.34;5012121;28;20200;-69
2021/11/26 02:48:07;;;;;;;20.60;14.20;;;3.30;99.90;;;4.06;100.00;99012.50;5011826;28;20212;-69
2021/11/26 02:50:37;;;;;;;17.20;13.17;;;3.30;99.90;;;4.19;100.00;99003.69;5012102;28;20293;-69
2021/11/26 02:53:07;;;;;;;19.43;13.20;;;3.40;99.90;;;4.18;100.00;99007.41;5011799;28;20213;-70
2021/11/26 02:55:38;;;;;;;18.50;13.20;;;3.40;99.90;;;4.15;100.00;98991.81;5012070;28;20298;-69
2021/11/26 02:58:07;;;;;;;19.10;13.80;;;3.40;99.90;;;4.27;100.00;98993.63;5011978;28;20203;-70
2021/11/26 03:00:39;;;;;;;19.40;12.53;;;3.50;99.90;;;4.34;100.00;98990.97;5011957;28;20319;-68
2021/11/26 03:03:07;;;;;;;17.53;12.93;;;3.50;99.90;;;4.32;100.00;98977.84;5011990;28;20244;-69
2021/11/26 03:05:39;;;;;;;16.73;11.70;;;3.60;99.90;;;4.27;100.00;98977.66;5011931;28;20214;-70
2021/11/26 03:08:08;;;;;;;17.90;12.20;;;3.60;99.90;;;4.50;100.00;98978.00;5011619;28;20187;-69
2021/11/26 03:10:38;;;;;;;17.33;12.50;;;3.60;99.90;;;4.49;100.00;98972.88;5011419;28;20198;-68
2021/11/26 03:13:10;;;;;;;16.97;12.90;;;3.70;99.90;;;4.45;100.00;98977.81;5011491;28;20297;-69
2021/11/26 03:15:41;;;;;;;17.90;13.33;;;3.70;99.90;;;4.38;100.00;98974.31;5011942;28;20191;-68
2021/11/26 03:18:13;;;;;;;19.33;13.60;;;3.70;99.90;;;4.37;100.00;98977.22;5011472;28;20671;-69
2021/11/26 03:20:43;;;;;;;18.07;13.17;;;3.70;99.90;;;4.61;100.00;98969.34;5011619;28;20204;-71
2021/11/26 03:23:12;;;;;;;17.20;12.93;;;3.70;99.90;;;4.62;100.00;98967.47;5011646;28;20388;-69
2021/11/26 03:25:41;;;;;;;16.77;12.30;;;3.80;99.90;;;4.66;100.00;98958.88;5011716;28;20626;-69
2021/11/26 03:28:10;;;;;;;17.70;12.17;;;3.70;99.90;;;4.45;100.00;98956.47;5011336;28;20229;-69
2021/11/26 03:30:40;;;;;;;17.67;12.93;;;3.70;99.90;;;4.55;100.00;98956.84;5011582;28;20684;-70
2021/11/26 03:33:10;;;;;;;17.37;12.30;;;3.70;99.90;;;4.34;100.00;98943.81;5011638;28;20298;-70
2021/11/26 03:35:38;;;;;;;18.93;12.00;;;3.70;99.90;;;4.29;100.00;98940.94;5011765;28;20205;-69
2021/11/26 03:38:08;;;;;;;17.07;12.03;;;3.60;99.90;;;4.38;100.00;98941.53;5011280;28;20303;-69
2021/11/26 03:40:36;;;;;;;16.73;12.40;;;3.60;99.90;;;4.28;100.00;98943.81;5011516;28;20271;-67
2021/11/26 03:43:06;;;;;;;18.43;12.20;;;3.60;99.90;;;4.34;100.00;98938.47;5011215;28;20213;-68
2021/11/26 03:45:34;;;;;;;16.17;12.20;;;3.60;99.90;;;4.30;100.00;98936.41;5011818;28;20228;-69
2021/11/26 03:48:03;;;;;;;17.07;12.77;;;3.50;99.90;;;4.30;100.00;98929.25;5011653;28;20205;-68
2021/11/26 03:50:32;;;;;;;18.80;13.13;;;3.50;99.90;;;4.36;100.00;98936.44;5011386;28;20635;-68
2021/11/26 03:53:00;;;;;;;19.57;13.30;;;3.50;99.90;;;4.29;100.00;98935.63;5011655;28;20201;-68
2021/11/26 03:55:30;;;;;;;18.57;13.83;;;3.50;99.90;;;4.29;100.00;98934.78;5015161;28;20201;-69
2021/11/26 03:57:59;;;;;;;18.87;13.23;;;3.60;99.90;;;4.38;100.00;98923.69;5015069;28;20212;-69
2021/11/26 04:00:28;;;;;;;20.13;12.77;;;3.60;99.90;;;4.32;100.00;98919.19;5015173;28;20229;-69
2021/11/26 04:02:57;;;;;;;21.40;12.87;;;3.50;99.90;;;4.22;100.00;98915.34;5015084;28;20259;-69
2021/11/26 04:05:26;;;;;;;18.03;12.43;;;3.50;99.90;;;4.29;100.00;98914.31;5014733;28;20650;-68
2021/11/26 04:07:58;;;;;;;18.37;12.87;;;3.60;99.90;;;4.36;100.00;98914.28;5014676;28;20185;-69
2021/11/26 04:10:29;;;;;;;18.60;13.23;;;3.60;99.90;;;4.27;100.00;98910.19;5014633;28;20326;-69
2021/11/26 04:12:58;;;;;;;17.30;12.40;;;3.60;99.90;;;4.40;100.00;98907.47;5014826;28;20715;-68
2021/11/26 04:15:29;;;;;;;16.27;12.90;;;3.60;99.90;;;4.34;100.00;98905.66;5014742;28;20622;-69
2021/11/26 04:18:01;;;;;;;19.07;13.43;;;3.60;99.90;;;4.25;100.00;98897.09;5014220;28;20214;-69
2021/11/26 04:20:30;;;;;;;18.73;13.10;;;3.60;99.90;;;4.26;100.00;98897.91;5014535;28;20245;-69
2021/11/26 04:22:59;;;;;;;19.77;13.43;;;3.60;99.90;;;4.25;100.00;98897.09;5014285;28;20207;-69
2021/11/26 04:25:30;;;;;;;17.37;12.50;;;3.50;99.90;;;4.19;100.00;98891.78;5014349;28;20243;-68
2021/11/26 04:27:59;;;;;;;19.67;14.10;;;3.50;99.90;;;4.22;100.00;98888.69;5014234;28;20287;-68
2021/11/26 04:30:30;;;;;;;17.63;13.20;;;3.60;99.90;;;4.29;100.00;98887.66;5014357;28;20239;-68
2021/11/26 04:32:59;;;;;;;18.67;13.97;;;3.50;99.90;;;4.25;100.00;98885.59;5014155;28;20712;-68
2021/11/26 04:35:27;;;;;;;19.53;13.00;;;3.60;99.90;;;4.25;100.00;98881.09;5014085;28;20749;-68
2021/11/26 04:37:56;;;;;;;18.30;12.90;;;3.60;99.90;;;4.32;100.00;98886.38;5014328;28;20286;-68
2021/11/26 04:40:24;;;;;;;18.83;13.43;;;3.60;99.90;;;4.26;100.00;98880.06;5013957;28;20797;-69
2021/11/26 04:42:54;;;;;;;20.27;13.80;;;3.60;99.90;;;4.32;100.00;98881.88;5014229;28;20559;-68
2021/11/26 04:45:22;;;;;;;18.97;13.67;;;3.60;99.90;;;4.37;100.00;98886.56;5014325;28;20288;-70
2021/11/26 04:47:50;;;;;;;20.47;14.83;;;3.60;99.90;;;4.26;100.00;98876.59;5014444;28;20205;-68
2021/11/26 04:50:19;;;;;;;19.77;15.07;;;3.60;99.90;;;4.37;100.00;98876.75;5014086;28;20850;-68
2021/11/26 04:52:48;;;;;;;20.00;14.63;;;3.60;99.90;;;4.45;100.00;98873.81;5014005;28;20637;-68
2021/11/26 04:55:17;;;;;;;21.43;13.53;;;3.60;99.90;;;4.37;100.00;98876.75;5013969;28;20296;-68
2021/11/26 04:57:46;;;;;;;20.53;14.37;;;3.60;99.90;;;4.49;100.00;98872.38;5013757;28;20202;-69
2021/11/26 05:00:20;;;;;;;19.43;13.37;;;3.70;99.90;;;4.50;100.00;98876.66;5013565;28;20224;-69
2021/11/26 05:02:48;;;;;;;18.03;12.63;;;3.70;99.90;;;4.45;100.00;98878.34;5013698;28;20189;-69
2021/11/26 05:05:16;;;;;;;21.80;13.17;;;3.70;99.90;;;4.54;100.00;98880.56;5013186;28;20208;-67
2021/11/26 05:07:45;;;;;;;17.80;13.47;;;3.70;99.90;;;4.56;100.00;98880.34;5013547;28;20733;-68
2021/11/26 05:10:17;;;;;;;19.77;13.70;;;3.70;99.90;;;4.35;100.00;98875.31;5014048;28;20671;-69
2021/11/26 05:12:48;;;;;;;21.67;14.00;;;3.70;99.90;;;4.46;100.00;98875.47;5013625;28;20195;-69
2021/11/26 05:15:24;;;;;;;17.97;13.60;;;3.70;99.90;;;4.49;100.00;98861.72;5013528;28;20191;-68
2021/11/26 05:17:54;;;;;;;17.33;13.30;;;3.70;99.90;;;4.39;100.00;98865.88;5013544;28;20183;-70
2021/11/26 05:20:23;;;;;;;20.30;14.27;;;3.70;99.90;;;4.55;100.00;98860.06;5013504;28;20229;-68
2021/11/26 05:22:52;;;;;;;21.90;15.23;;;3.70;99.90;;;4.52;100.00;98853.28;5013361;28;20304;-69
2021/11/26 05:25:21;;;;;;;18.93;14.33;;;3.70;99.90;;;4.48;100.00;98851.28;5013258;28;20211;-69
2021/11/26 05:27:50;;;;;;;18.60;13.57;;;3.70;99.90;;;4.60;100.00;98850.38;5014485;28;20318;-68
2021/11/26 05:30:20;;;;;;;21.03;13.40;;;3.80;99.90;;;4.46;100.00;98843.50;5014585;28;20282;-68
2021/11/26 05:32:50;;;;;;;19.60;13.50;;;3.70;99.90;;;4.41;100.00;98850.47;5013778;28;20390;-69
2021/11/26 05:35:20;;;;;;;18.90;13.77;;;3.70;99.90;;;4.42;100.00;98849.44;5013335;28;20208;-69
2021/11/26 05:37:48;;;;;;;20.83;14.50;;;3.70;99.90;;;4.48;100.00;98852.06;5013246;28;20241;-68
2021/11/26 05:40:17;;;;;;;22.20;14.10;;;3.70;99.90;;;4.41;100.00;98853.97;5013178;28;20360;-68
2021/11/26 05:42:45;;;;;;;18.53;12.90;;;3.70;99.90;;;4.42;100.00;98844.09;5013361;28;20241;-69
2021/11/26 05:45:16;;;;;;;20.93;14.47;;;3.70;99.90;;;4.38;100.00;98843.72;5012937;28;20700;-68
2021/11/26 05:47:46;;;;;;;17.83;13.33;;;3.70;99.90;;;4.53;100.00;98841.56;5013618;28;20193;-69
2021/11/26 05:50:18;;;;;;;22.93;14.17;;;3.60;99.90;;;4.43;100.00;98835.09;5012927;28;20653;-69
2021/11/26 05:52:48;;;;;;;19.47;13.57;;;3.70;99.90;;;4.41;100.00;98824.66;5012682;28;20640;-69
2021/11/26 05:55:21;;;;;;;22.57;14.77;;;3.70;99.90;;;4.33;100.00;98826.75;5013001;28;20233;-68
2021/11/26 05:57:51;;;;;;;23.13;13.60;;;3.60;99.90;;;4.51;100.00;98822.34;5012846;28;20198;-67
2021/11/26 06:00:22;;;;;;;19.53;13.10;;;3.70;99.90;;;4.49;100.00;98821.72;5014537;28;20291;-68
2021/11/26 06:02:53;;;;;;;20.37;13.80;;;3.60;99.90;;;4.30;100.00;98813.81;5014198;28;20229;-69
2021/11/26 06:05:23;;;;;;;22.33;13.93;;;3.60;99.90;;;4.24;100.00;98809.34;5014394;28;20279;-69
2021/11/26 06:07:51;;;;;;;19.10;14.57;;;3.60;99.90;;;4.35;100.00;98803.34;5013026;28;20299;-69
2021/11/26 06:10:20;;;;;;;21.90;14.40;;;3.50;99.90;;;4.14;100.00;98809.81;5011880;28;20239;-62
2021/11/26 06:12:51;;;;;;;19.73;14.13;;;3.50;99.90;;;4.15;100.00;98802.63;5012278;28;20722;-62
2021/11/26 06:15:23;;;;;;;21.13;13.93;;;3.50;99.90;;;4.02;100.00;98805.34;5012659;28;20193;-62
2021/11/26 06:17:53;;;;;;;18.73;13.20;;;3.40;99.90;;;3.94;100.00;98803.72;5011648;28;20279;-61
2021/11/26 06:20:22;;;;;;;28.90;19.63;;;3.40;99.90;;;3.89;100.00;98798.22;5012115;28;20749;-62
2021/11/26 06:22:52;;;;;;;21.33;15.43;;;3.30;99.90;;;4.21;100.00;98793.78;5012356;28;20215;-61
2021/11/26 06:25:23;;;;;;;21.47;14.63;;;3.40;99.90;;;4.13;100.00;98794.00;5012372;28;20228;-62
2021/11/26 06:27:53;;;;;;;22.00;14.53;;;3.40;99.90;;;4.26;100.00;98793.97;5012151;28;20262;-61
2021/11/26 06:30:24;;;;;;;21.10;14.37;;;3.50;99.90;;;4.03;100.00;98796.31;5012351;28;20301;-61
2021/11/26 06:32:55;;;;;;;21.60;14.57;;;3.40;99.90;;;3.93;100.00;98787.97;5012489;28;20257;-60
2021/11/26 06:35:25;;;;;;;21.27;15.00;;;3.40;99.90;;;3.88;100.00;98780.59;5012300;28;20195;-61
2021/11/26 06:37:56;;;;;;;21.00;13.57;;;3.40;99.90;;;4.05;100.00;98783.59;5011909;28;20216;-62
2021/11/26 06:40:26;;;;;;;19.03;13.33;;;3.30;99.90;;;3.95;100.00;98776.06;5012681;28;20279;-61
2021/11/26 06:42:55;;;;;;;19.87;13.67;;;3.30;99.90;;;3.97;100.00;98775.88;5012197;28;20307;-61
2021/11/26 06:45:24;;;;;;;22.93;14.63;;;3.40;99.90;;;4.23;100.00;98776.53;5012291;28;20200;-61
2021/11/26 06:47:54;;;;;;;18.57;13.50;;;3.40;99.90;;;4.22;100.00;98769.59;5012008;28;20236;-62
2021/11/26 06:50:23;;;;;;;19.67;13.73;;;3.50;99.90;;;4.41;100.00;98767.84;5012537;28;20241;-60
2021/11/26 06:52:51;;;;;;;20.37;13.53;;;3.50;99.90;;;4.40;100.00;98769.69;5012282;28;20630;-61
2021/11/26 06:55:21;;;;;;;17.47;12.27;;;3.50;99.90;;;4.50;100.00;98764.69;5012586;28;20294;-62
2021/11/26 06:57:50;;;;;;;17.47;13.10;;;3.60;99.90;;;4.34;100.00;98770.56;5012105;28;20299;-61
2021/11/26 07:00:20;;;;;;;20.43;13.53;;;3.60;99.90;;;4.48;100.00;98764.09;5012569;28;20207;-60
2021/11/26 07:02:49;;;;;;;18.43;12.77;;;3.70;99.90;;;4.53;100.00;98766.94;5012383;28;20259;-62
2021/11/26 07:05:19;;;;;;;18.83;13.23;;;3.70;99.90;;;4.44;100.00;98757.56;5012681;28;20205;-61
2021/11/26 07:07:48;;;;;;;19.17;12.43;;;3.70;99.90;;;4.35;100.00;98748.19;5012454;28;20189;-61
2021/11/26 07:10:17;;;;;;;17.20;13.03;;;3.60;99.90;;;4.47;100.00;98751.81;5012204;28;20690;-62
2021/11/26 07:12:46;;;;;;;20.30;13.30;;;3.70;99.90;;;4.54;100.00;98754.41;5012314;28;20291;-61
2021/11/26 07:15:17;;;;;;;20.17;13.10;;;3.80;99.90;;;4.44;100.00;98752.25;5012271;28;20241;-62
2021/11/26 07:17:46;;;;;;;20.67;13.50;;;3.80;99.90;;;4.50;100.00;98750.56;5012176;28;20284;-61
2021/11/26 07:20:15;;;;;;;18.33;12.73;;;3.70;99.90;;;4.42;100.00;98745.47;5012320;28;20559;-62
2021/11/26 07:22:44;;;;;;;22.50;13.80;;;3.80;99.90;;;4.64;100.00;98752.09;5012085;28;20656;-60
2021/11/26 07:25:14;;;;;;;19.70;13.20;;;3.80;99.90;;;4.63;100.00;98750.47;5012330;28;20213;-61
2021/11/26 07:27:42;;;;;;;20.27;13.70;;;3.80;99.90;;;4.74;100.00;98747.91;5011792;28;20264;-61
2021/11/26 07:30:13;;;;;;;21.83;14.73;;;3.90;99.90;;;4.84;100.00;98742.09;5012507;28;20238;-62
2021/11/26 07:32:41;;;;;;;20.60;13.70;;;4.00;99.90;;;4.91;100.00;98735.66;5015700;28;20275;-62
2021/11/26 07:35:10;;;;;;;23.50;13.97;;;4.00;99.90;;;4.86;100.00;98735.50;5015959;28;20288;-62
2021/11/26 07:37:39;;;;;;;20.33;12.73;;;4.00;99.90;;;4.87;100.00;98731.78;5015710;28;20723;-61
2021/11/26 07:40:12;;;;;;;19.23;12.80;;;4.10;99.90;;;5.12;100.00;98717.63;5015125;28;20202;-62
2021/11/26 07:42:41;;;;;;;21.30;13.27;;;4.20;99.90;;;5.23;100.00;98715.03;5015282;28;20253;-62
2021/11/26 07:45:12;;;;;;;21.10;13.43;;;4.30;99.90;;;5.18;100.00;98706.88;5015080;28;20299;-62
2021/11/26 07:47:41;;;;;;;19.10;11.70;;;4.20;99.90;;;5.16;100.00;98706.28;5015391;28;20304;-61
2021/11/26 07:50:12;;;;;;;19.43;13.43;;;4.20;99.90;;;5.14;100.00;98704.88;5015178;28;20807;-62
2021/11/26 07:52:42;;;;;;;17.20;12.37;;;4.20;99.90;;;5.07;100.00;98706.78;5015003;28;20286;-61
2021/11/26 07:55:13;;;;;;;20.13;11.70;;;4.30;99.90;;;5.08;100.00;98703.91;5015735;28;20208;-63
2021/11/26 07:57:46;;;;;;;20.03;12.47;;;4.30;99.90;;;5.36;100.00;98704.22;5015463;28;20225;-63
2021/11/26 08:00:16;;;;;;;19.60;12.07;;;4.40;99.90;;;5.34;100.00;98711.66;5015501;28;20210;-62
2021/11/26 08:02:44;;;;;;;17.57;12.10;;;4.40;99.90;;;5.38;100.00;98698.69;5015686;28;20315;-62
2021/11/26 08:05:13;;;;;;;22.63;12.70;;;4.50;99.90;;;5.32;100.00;98697.69;5015613;28;20209;-62
2021/11/26 08:07:42;;;;;;;19.97;12.57;;;4.50;99.90;;;5.32;100.00;98694.22;5015690;28;20200;-61
2021/11/26 08:10:13;;;;;;;17.27;12.03;;;4.50;99.90;;;5.48;100.00;98693.63;5015414;28;20213;-61
2021/11/26 08:12:43;;;;;;;16.57;11.77;;;4.50;99.90;;;5.58;100.00;98689.38;5015402;28;20192;-61
2021/11/26 08:15:17;;;;;;;27.57;18.43;;;4.60;99.90;;;5.51;100.00;98687.84;5015273;28;20549;-62
2021/11/26 08:17:50;;;;;;;17.30;12.13;;;4.60;99.90;;;5.57;100.00;98686.94;5015376;28;20225;-62
2021/11/26 08:20:18;;;;;;;16.13;10.53;;;4.60;99.90;;;5.54;100.00;98690.88;5015175;28;20650;-62
2021/11/26 08:22:48;;;;;;;17.00;11.20;;;4.60;99.90;;;5.59;100.00;98687.53;5015085;28;20312;-61
2021/11/26 08:25:21;;;;;;;17.13;11.33;;;4.70;99.90;;;5.69;100.00;98677.94;5015429;28;20257;-63
2021/11/26 08:27:50;;;;;;;15.43;10.37;;;4.70;99.90;;;5.62;100.00;98671.88;5014905;28;20225;-61
2021/11/26 08:30:18;;;;;;;14.30;10.70;;;4.80;99.90;;;5.75;100.00;98678.91;5014497;28;20215;-62
2021/11/26 08:32:48;;;;;;;25.50;11.90;;;4.90;99.90;;;5.80;100.00;98673.72;5015012;28;20574;-62
2021/11/26 08:35:17;;;;;;;20.67;11.50;;;4.90;99.90;;;5.81;100.00;98668.13;5014937;28;20537;-62
2021/11/26 08:37:45;;;;;;;16.40;10.70;;;4.90;99.90;;;5.98;100.00;98674.53;5015054;28;20241;-62
2021/11/26 08:40:16;;;;;;;17.73;11.43;;;5.00;99.90;;;5.99;100.00;98665.44;5013862;28;20579;-61
2021/11/26 08:42:46;;;;;;;14.57;10.23;;;5.00;99.90;;;6.11;100.00;98660.13;5014750;28;20210;-62
2021/11/26 08:45:19;;;;;;;41.60;11.50;;;5.10;99.90;;;6.14;100.00;98655.16;5014457;28;20221;-62
2021/11/26 08:47:48;;;;;;;37.97;11.87;;;5.20;99.90;;;6.30;100.00;98652.88;5014790;28;20281;-62
2021/11/26 08:50:19;;;;;;;31.07;11.47;;;5.20;99.90;;;6.23;100.00;98652.97;5014505;28;20249;-62
2021/11/26 08:52:49;;;;;;;23.83;10.80;;;5.30;99.90;;;6.29;100.00;98644.03;5014219;28;20597;-61
2021/11/26 08:55:18;;;;;;;14.20;10.63;;;5.20;99.90;;;6.44;100.00;98648.94;5014762;28;20220;-61
2021/11/26 08:57:53;;;;;;;18.10;10.63;;;5.30;99.90;;;6.36;100.00;98643.94;5014513;28;20302;-61
2021/11/26 09:00:26;;;;;;;15.23;9.47;;;5.40;99.90;;;6.43;100.00;98648.13;5014513;28;20194;-60
2021/11/26 09:02:55;;;;;;;14.63;10.00;;;5.40;99.90;;;6.38;100.00;98639.16;5014213;28;20670;-61
2021/11/26 09:05:23;;;;;;;14.07;9.30;;;5.40;99.90;;;6.27;100.00;98638.09;5013542;28;20254;-60
2021/11/26 09:07:57;;;;;;;11.33;8.97;;;5.40;99.90;;;6.38;100.00;98634.63;5013850;28;20217;-61
2021/11/26 09:10:26;;;;;;;15.43;8.60;;;5.40;99.90;;;6.48;100.00;98644.78;5014369;28;20277;-60
2021/11/26 09:12:55;;;;;;;12.50;9.10;;;5.50;99.90;;;6.56;100.00;98641.75;5013570;28;20240;-60
2021/11/26 09:15:24;;;;;;;15.17;10.07;;;5.60;99.90;;;6.59;100.00;98636.75;5014233;28;20324;-60
2021/11/26 09:17:54;;;;;;;12.43;8.93;;;5.60;99.90;;;6.66;100.00;98642.81;5013960;28;20209;-61
2021/11/26 09:20:23;;;;;;;12.77;8.43;;;5.60;99.90;;;6.47;100.00;98638.59;5013236;28;20209;-61
2021/11/26 09:22:51;;;;;;;13.70;9.00;;;5.60;99.90;;;6.61;100.00;98632.00;5012059;28;20313;-59
2021/11/26 09:25:20;;;;;;;14.57;9.13;;;5.60;99.90;;;6.69;100.00;98631.66;5013334;28;20338;-60
2021/11/26 09:27:49;;;;;;;11.40;7.83;;;5.60;99.90;;;6.75;100.00;98624.56;5012253;28;20418;-61
2021/11/26 09:30:22;;;;;;;9.40;7.43;;;5.60;99.90;;;6.79;100.00;98621.19;5022967;28;20273;-60
2021/11/26 09:32:50;;;;;;;11.83;7.70;;;5.70;99.90;;;6.82;100.00;98623.38;4993679;28;20278;-60
2021/11/26 09:35:18;;;;;;;12.00;7.33;;;5.80;99.90;;;6.86;99.85;98616.53;4993505;28;20757;-59
2021/11/26 09:37:47;;;;;;;11.27;7.53;;;5.80;99.90;;;7.13;98.46;98617.66;4993548;28;20291;-60
2021/11/26 09:40:20;;;;;;;10.63;6.30;;;5.80;99.90;;;7.09;96.69;98616.50;4993412;28;20298;-60
2021/11/26 09:42:49;;;;;;;10.70;6.90;;;6.00;99.90;;;7.05;97.36;98604.59;4992946;28;20298;-60
2021/11/26 09:45:22;;;;;;;13.13;8.77;;;6.00;99.90;;;7.15;96.30;98606.72;4993562;28;20188;-61
2021/11/26 09:47:52;;;;;;;10.33;6.47;;;6.00;99.90;;;6.85;95.37;98604.16;4993626;28;20184;-61
2021/11/26 09:50:24;;;;;;;10.20;6.40;;;6.00;99.90;;;7.16;94.88;98603.78;4992936;28;20631;-61
2021/11/26 09:53:08;;;;;;;8.37;6.50;;;6.00;99.90;;;7.03;93.73;98600.56;4993067;28;20188;-61
2021/11/26 09:55:37;;;;;;;8.90;6.17;;;6.00;99.90;;;7.04;94.20;98594.13;4993132;28;20906;-59
2021/11/26 09:58:06;;;;;;;9.07;5.97;;;6.00;99.90;;;7.01;94.70;98576.69;4992744;28;20318;-61
2021/11/26 10:00:36;;;;;;;8.80;6.13;;;6.00;99.90;;;7.18;94.44;98577.59;4993038;28;20233;-59
2021/11/26 10:03:05;;;;;;;7.63;5.90;;;6.10;99.90;;;7.12;94.64;98572.38;4993209;28;20707;-60
2021/11/26 10:05:35;;;;;;;7.37;5.00;;;6.10;99.90;;;7.06;91.96;98568.78;4993204;28;20203;-60
2021/11/26 10:08:05;;;;;;;8.57;5.27;;;6.10;99.90;;;7.15;90.87;98566.53;4992947;28;20208;-61
2021/11/26 10:10:37;;;;;;;7.83;5.10;;;6.10;99.90;;;7.26;90.43;98563.84;4993384;28;20611;-60
2021/11/26 10:13:09;;;;;;;6.37;4.57;;;6.20;99.90;;;7.34;89.97;98565.31;4993197;28;20234;-61
2021/11/26 10:15:42;;;;;;;8.20;5.60;;;6.30;99.90;;;7.43;89.58;98556.66;4993524;28;20227;-60
2021/11/26 10:18:15;;;;;;;11.00;5.77;;;6.30;99.90;;;7.51;88.00;98558.13;5006256;28;20237;-61
2021/11/26 10:21:02;;;;;;;7.43;5.43;;;6.30;99.90;;;7.60;86.92;98554.03;5013185;28;20518;-60
2021/11/26 10:23:36;;;;;;;11.20;5.77;;;6.50;99.90;;;7.45;86.87;98553.75;5012556;28;20253;-60
2021/11/26 10:26:24;;;;;;;8.93;5.00;;;6.50;99.90;;;7.28;89.40;98539.50;5013170;28;20191;-61